Time;durP1;ratioP1;P1;durP2;ratioP2;P2;SDS_P1;SDS_P2;PMS_P1;PMS_P2;Temp;Humidity;BMP_temperature;BMP_pressure;BME280_temperature;BME280_humidity;BME280_pressure;Samples;Min_cycle;Max_cycle;Signal;HPM_P1;HPM_P2
2021/11/22 00:01:05;;;;;;;6.85;0.93;;;4.10;99.90;;;;;;5045835;28;20025;-91
2021/11/22 00:03:32;;;;;;;2.40;0.80;;;4.10;99.90;;;;;;5034935;28;20338;-92
2021/11/22 00:05:58;;;;;;;3.63;0.88;;;4.20;99.90;;;;;;5039616;28;20083;-91
2021/11/22 00:08:25;;;;;;;4.72;0.85;;;4.10;99.90;;;;;;5042078;28;20033;-92
2021/11/22 00:10:53;;;;;;;4.10;1.40;;;4.20;99.90;;;;;;5016037;28;20048;-91
2021/11/22 00:13:19;;;;;;;2.72;1.00;;;4.20;99.90;;;;;;5028117;28;20029;-91
2021/11/22 00:15:45;;;;;;;6.70;1.08;;;4.30;99.90;;;;;;5038840;28;20473;-92
2021/11/22 00:18:14;;;;;;;3.03;0.98;;;4.30;99.90;;;;;;5020744;28;20037;-90
2021/11/22 00:20:42;;;;;;;2.63;0.90;;;4.30;99.90;;;;;;5028305;28;20107;-90
2021/11/22 00:23:10;;;;;;;3.63;1.20;;;4.30;99.90;;;;;;5034556;28;20055;-92
2021/11/22 00:25:35;;;;;;;3.13;1.02;;;4.30;99.90;;;;;;5027097;28;20064;-90
2021/11/22 00:28:01;;;;;;;3.45;1.20;;;4.30;99.90;;;;;;5040639;28;20406;-91
2021/11/22 00:30:33;;;;;;;7.07;1.48;;;4.30;99.90;;;;;;5035796;28;20030;-90
2021/11/22 00:33:03;;;;;;;5.85;1.33;;;4.30;99.90;;;;;;5046062;28;20183;-91
2021/11/22 00:35:32;;;;;;;4.50;1.33;;;4.30;99.90;;;;;;5044236;28;20037;-91
2021/11/22 00:38:00;;;;;;;4.50;1.30;;;4.30;99.90;;;;;;5038949;28;20036;-90
2021/11/22 00:40:28;;;;;;;3.85;1.00;;;4.30;99.90;;;;;;5042105;28;20148;-91
2021/11/22 00:42:54;;;;;;;2.60;0.85;;;4.30;99.90;;;;;;5051522;28;20110;-91
2021/11/22 00:45:23;;;;;;;2.75;0.70;;;4.30;99.90;;;;;;5041639;28;20495;-91
2021/11/22 00:47:50;;;;;;;3.45;1.15;;;4.30;99.90;;;;;;5030334;28;20041;-91
2021/11/22 00:50:17;;;;;;;5.03;1.10;;;4.30;99.90;;;;;;5030192;28;20037;-91
2021/11/22 00:52:47;;;;;;;4.28;1.15;;;4.30;99.90;;;;;;5006539;28;20041;-90
2021/11/22 00:55:14;;;;;;;4.15;1.13;;;4.30;99.90;;;;;;5067147;28;20512;-90
2021/11/22 00:57:39;;;;;;;3.03;1.30;;;4.30;99.90;;;;;;5025307;28;20035;-91
2021/11/22 01:00:10;;;;;;;4.20;0.90;;;4.30;99.90;;;;;;5043529;28;20025;-90
2021/11/22 01:02:37;;;;;;;5.93;1.10;;;4.30;99.90;;;;;;5032781;28;20073;-91
2021/11/22 01:05:14;;;;;;;2.50;0.90;;;4.20;99.90;;;;;;5038269;28;20391;-91
2021/11/22 01:07:40;;;;;;;3.33;0.90;;;4.20;99.90;;;;;;5045675;28;20029;-91
2021/11/22 01:10:33;;;;;;;2.33;0.90;;;4.20;99.90;;;;;;5043712;28;20036;-89
2021/11/22 01:12:59;;;;;;;4.18;0.80;;;4.20;99.90;;;;;;5051574;28;20404;-91
2021/11/22 01:15:25;;;;;;;4.28;1.77;;;4.30;99.90;;;;;;5054822;28;20027;-90
2021/11/22 01:17:56;;;;;;;2.90;0.80;;;4.30;99.90;;;;;;5056438;28;20041;-91
2021/11/22 01:20:31;;;;;;;4.15;0.80;;;4.30;99.90;;;;;;5049709;28;20033;-91
2021/11/22 01:23:09;;;;;;;3.75;1.10;;;4.30;99.90;;;;;;5026433;28;20064;-90
2021/11/22 01:25:48;;;;;;;3.38;0.80;;;4.30;99.90;;;;;;5053962;28;20026;-90
2021/11/22 01:28:14;;;;;;;3.35;0.95;;;4.30;99.90;;;;;;5046871;28;20032;-91
2021/11/22 01:30:42;;;;;;;5.10;1.60;;;4.30;99.90;;;;;;5022551;28;20045;-90
2021/11/22 01:33:08;;;;;;;3.25;1.02;;;4.30;99.90;;;;;;5050086;28;20040;-89
2021/11/22 01:35:37;;;;;;;4.25;1.02;;;4.30;99.90;;;;;;5038208;28;20017;-90
2021/11/22 01:38:08;;;;;;;4.32;1.15;;;4.30;99.90;;;;;;5045800;28;20036;-91
2021/11/22 01:40:34;;;;;;;3.03;0.82;;;4.30;99.90;;;;;;5040721;28;20075;-92
2021/11/22 01:43:00;;;;;;;2.22;0.88;;;4.30;99.90;;;;;;5050745;28;20083;-91
2021/11/22 01:45:31;;;;;;;2.03;0.77;;;4.30;99.90;;;;;;5039552;28;20052;-91
2021/11/22 01:47:58;;;;;;;4.10;1.10;;;4.30;99.90;;;;;;5023485;28;20060;-91
2021/11/22 01:50:25;;;;;;;2.85;0.93;;;4.30;99.90;;;;;;5021019;28;20350;-92
2021/11/22 01:52:53;;;;;;;3.90;1.17;;;4.30;99.90;;;;;;5019859;28;20063;-91
2021/11/22 01:55:24;;;;;;;3.30;0.75;;;4.30;99.90;;;;;;5036492;28;20056;-92
2021/11/22 01:57:57;;;;;;;1.92;0.85;;;4.30;99.90;;;;;;5036519;28;20053;-92
2021/11/22 02:00:34;;;;;;;1.52;0.80;;;4.30;99.90;;;;;;5036436;28;20424;-92
2021/11/22 02:03:04;;;;;;;3.70;0.70;;;4.30;99.90;;;;;;5037430;28;20025;-91
2021/11/22 02:05:30;;;;;;;3.70;1.20;;;4.30;99.90;;;;;;5036123;28;20026;-93
2021/11/22 02:08:01;;;;;;;5.55;1.20;;;4.30;99.90;;;;;;5019979;28;20408;-92
2021/11/22 02:10:28;;;;;;;2.38;0.93;;;4.30;99.90;;;;;;5036215;28;20022;-92
2021/11/22 02:12:55;;;;;;;4.78;1.20;;;4.30;99.90;;;;;;5063619;28;20025;-92
2021/11/22 02:15:21;;;;;;;1.48;0.82;;;4.30;99.90;;;;;;5052690;28;20438;-94
2021/11/22 02:17:49;;;;;;;3.63;0.98;;;4.30;99.90;;;;;;5069072;28;20052;-90
2021/11/22 02:20:23;;;;;;;2.10;1.00;;;4.40;99.90;;;;;;5036203;28;20492;-90
2021/11/22 02:22:52;;;;;;;3.85;1.00;;;4.30;99.90;;;;;;5069274;28;20385;-92
2021/11/22 02:25:19;;;;;;;4.95;1.35;;;4.30;99.90;;;;;;5037363;28;20017;-91
2021/11/22 02:27:49;;;;;;;5.40;1.00;;;4.30;99.90;;;;;;5021046;28;20049;-91
2021/11/22 02:30:17;;;;;;;2.90;1.17;;;4.30;99.90;;;;;;5039767;28;20461;-90
2021/11/22 02:32:44;;;;;;;4.20;1.00;;;4.30;99.90;;;;;;5037145;28;20124;-91
2021/11/22 02:35:17;;;;;;;4.05;1.13;;;4.30;99.90;;;;;;5035755;28;20060;-90
2021/11/22 02:37:43;;;;;;;3.40;1.10;;;4.30;99.90;;;;;;5052757;28;20483;-91
2021/11/22 02:40:11;;;;;;;2.13;1.08;;;4.30;99.90;;;;;;5040724;28;20026;-92
2021/11/22 02:42:41;;;;;;;6.43;0.90;;;4.20;99.90;;;;;;5036460;28;20057;-93
2021/11/22 02:45:10;;;;;;;3.35;1.00;;;4.20;99.90;;;;;;5034753;28;20587;-91
2021/11/22 02:47:41;;;;;;;3.28;0.98;;;4.20;99.90;;;;;;5038845;28;20033;-92
2021/11/22 02:50:11;;;;;;;2.50;1.08;;;4.20;99.90;;;;;;5053158;28;20373;-91
2021/11/22 02:52:38;;;;;;;2.58;1.00;;;4.20;99.90;;;;;;5020126;28;20065;-90
2021/11/22 02:55:07;;;;;;;3.58;1.13;;;4.20;99.90;;;;;;5038470;28;20627;-91
2021/11/22 02:57:33;;;;;;;3.63;1.20;;;4.10;99.90;;;;;;5020032;28;20128;-91
2021/11/22 03:00:00;;;;;;;1.77;0.80;;;4.10;99.90;;;;;;5035803;28;20080;-92
2021/11/22 03:02:26;;;;;;;3.38;1.10;;;4.10;99.90;;;;;;5040476;28;20025;-92
2021/11/22 03:04:53;;;;;;;3.80;0.98;;;4.10;99.90;;;;;;5049441;28;20116;-93
2021/11/22 03:07:24;;;;;;;7.18;1.40;;;4.10;99.90;;;;;;5041916;28;20041;-91
2021/11/22 03:09:52;;;;;;;5.20;1.40;;;4.10;99.90;;;;;;5051584;28;20038;-91
2021/11/22 03:12:21;;;;;;;3.60;1.42;;;4.10;99.90;;;;;;5038823;28;20022;-91
2021/11/22 03:14:47;;;;;;;7.97;1.40;;;4.10;99.90;;;;;;5023557;28;20029;-90
2021/11/22 03:17:17;;;;;;;3.70;1.10;;;4.10;99.90;;;;;;5042094;28;20061;-90
2021/11/22 03:19:55;;;;;;;2.78;1.08;;;4.10;99.90;;;;;;5005367;28;20040;-91
2021/11/22 03:22:20;;;;;;;1.77;1.00;;;4.10;99.90;;;;;;5021168;28;20124;-91
2021/11/22 03:24:46;;;;;;;5.63;1.33;;;4.10;99.90;;;;;;5034863;28;20080;-92
2021/11/22 03:27:13;;;;;;;3.13;1.05;;;4.10;99.90;;;;;;5035019;28;20487;-92
2021/11/22 03:29:46;;;;;;;1.83;0.85;;;4.10;99.90;;;;;;5018776;28;20034;-92
2021/11/22 03:32:13;;;;;;;3.80;0.90;;;4.00;99.90;;;;;;5034503;28;20492;-92
2021/11/22 03:34:51;;;;;;;2.58;0.90;;;4.00;99.90;;;;;;5018754;28;20042;-92
2021/11/22 03:37:20;;;;;;;2.38;1.05;;;4.00;99.90;;;;;;5048094;28;20048;-91
2021/11/22 03:39:50;;;;;;;3.35;1.10;;;4.00;99.90;;;;;;5035366;28;20547;-93
2021/11/22 03:42:18;;;;;;;3.38;1.10;;;4.00;99.90;;;;;;5019333;28;20025;-92
2021/11/22 03:44:45;;;;;;;2.55;1.27;;;4.00;99.90;;;;;;5019409;28;20061;-91
2021/11/22 03:47:12;;;;;;;1.98;1.00;;;4.00;99.90;;;;;;5035781;28;20484;-92
2021/11/22 03:49:39;;;;;;;4.57;1.63;;;4.00;99.90;;;;;;5035255;28;20154;-91
2021/11/22 03:52:06;;;;;;;3.05;1.00;;;3.90;99.90;;;;;;5035895;28;20030;-91
2021/11/22 03:54:32;;;;;;;4.03;1.02;;;3.90;99.90;;;;;;5002477;28;20040;-91
2021/11/22 03:56:59;;;;;;;1.50;0.85;;;3.90;99.90;;;;;;5018437;28;20120;-90
2021/11/22 03:59:27;;;;;;;3.78;0.90;;;3.90;99.90;;;;;;5034363;28;20087;-88
2021/11/22 04:01:53;;;;;;;4.07;0.90;;;3.80;99.90;;;;;;5017740;28;20029;-91
2021/11/22 04:04:18;;;;;;;4.05;0.90;;;3.80;99.90;;;;;;5035074;28;20075;-91
2021/11/22 04:06:46;;;;;;;5.57;1.50;;;3.80;99.90;;;;;;5034582;28;20026;-92
2021/11/22 04:09:12;;;;;;;3.53;1.02;;;3.80;99.90;;;;;;5034874;28;20033;-91
2021/11/22 04:11:41;;;;;;;2.88;1.00;;;3.80;99.90;;;;;;5038129;28;20100;-90
2021/11/22 04:14:07;;;;;;;2.25;0.90;;;3.80;99.90;;;;;;5051501;28;20052;-92
2021/11/22 04:16:34;;;;;;;3.50;1.05;;;3.80;99.90;;;;;;5032892;28;20038;-92
2021/11/22 04:19:02;;;;;;;3.08;0.82;;;3.80;99.90;;;;;;5019959;28;20431;-93
2021/11/22 04:21:28;;;;;;;2.00;0.70;;;3.80;99.90;;;;;;5052418;28;20033;-93
2021/11/22 04:23:58;;;;;;;2.97;1.00;;;3.80;99.90;;;;;;5018757;28;20033;-91
2021/11/22 04:26:27;;;;;;;3.75;1.00;;;3.80;99.90;;;;;;5036178;28;20026;-92
2021/11/22 04:28:58;;;;;;;1.88;0.70;;;3.80;99.90;;;;;;5035747;28;20056;-91
2021/11/22 04:31:27;;;;;;;1.38;0.63;;;3.80;99.90;;;;;;5018998;28;20041;-92
2021/11/22 04:33:53;;;;;;;2.97;0.70;;;3.70;99.90;;;;;;5033796;28;20044;-90
2021/11/22 04:36:19;;;;;;;2.85;1.08;;;3.70;99.90;;;;;;5034452;28;20026;-90
2021/11/22 04:38:48;;;;;;;4.45;0.95;;;3.70;99.90;;;;;;5036066;28;20500;-91
2021/11/22 04:41:16;;;;;;;2.70;0.80;;;3.70;99.90;;;;;;5045025;28;20044;-90
2021/11/22 04:43:42;;;;;;;2.50;0.90;;;3.70;99.90;;;;;;5035514;28;20060;-91
2021/11/22 04:46:10;;;;;;;3.22;0.95;;;3.60;99.90;;;;;;5034304;28;20021;-91
2021/11/22 04:48:38;;;;;;;4.38;1.20;;;3.60;99.90;;;;;;5018938;28;20035;-91
2021/11/22 04:51:05;;;;;;;2.58;0.95;;;3.60;99.90;;;;;;5034899;28;20025;-91
2021/11/22 04:53:31;;;;;;;2.97;1.10;;;3.60;99.90;;;;;;5017540;28;20030;-91
2021/11/22 04:55:57;;;;;;;3.72;1.17;;;3.50;99.90;;;;;;5033773;28;20477;-92
2021/11/22 04:58:23;;;;;;;2.67;1.10;;;3.60;99.90;;;;;;5035028;28;20083;-92
2021/11/22 05:00:50;;;;;;;2.85;1.35;;;3.60;99.90;;;;;;5033907;28;20040;-92
2021/11/22 05:03:16;;;;;;;2.55;1.10;;;3.60;99.90;;;;;;5000651;28;20034;-92
2021/11/22 05:05:41;;;;;;;4.03;1.30;;;3.60;99.90;;;;;;5033680;28;20017;-92
2021/11/22 05:08:10;;;;;;;3.47;1.30;;;3.60;99.90;;;;;;5033198;28;20060;-92
2021/11/22 05:10:49;;;;;;;1.60;0.70;;;3.60;99.90;;;;;;5034213;28;20036;-92
2021/11/22 05:13:19;;;;;;;5.45;1.05;;;3.50;99.90;;;;;;5034499;28;20076;-92
2021/11/22 05:15:46;;;;;;;1.88;0.82;;;3.50;99.90;;;;;;5033738;28;20037;-93
2021/11/22 05:18:12;;;;;;;2.97;0.95;;;3.50;99.90;;;;;;5017164;28;20111;-93
2021/11/22 05:20:42;;;;;;;3.50;0.90;;;3.50;99.90;;;;;;5033296;28;20048;-93
2021/11/22 05:23:08;;;;;;;2.97;0.93;;;3.40;99.90;;;;;;5017341;28;20053;-92
2021/11/22 05:25:34;;;;;;;2.92;0.82;;;3.40;99.90;;;;;;5034908;28;20033;-93
2021/11/22 05:28:01;;;;;;;3.35;0.88;;;3.40;99.90;;;;;;5038618;28;20033;-93
2021/11/22 05:30:27;;;;;;;3.28;1.55;;;3.40;99.90;;;;;;5049426;28;20021;-91
2021/11/22 05:33:01;;;;;;;1.38;0.85;;;3.40;99.90;;;;;;5048173;28;20034;-91
2021/11/22 05:35:27;;;;;;;2.83;0.90;;;3.40;99.90;;;;;;5067533;28;20115;-90
2021/11/22 05:37:55;;;;;;;3.13;1.10;;;3.30;99.90;;;;;;5049753;28;20033;-92
2021/11/22 05:40:25;;;;;;;1.80;0.80;;;3.40;99.90;;;;;;5047489;28;20036;-92
2021/11/22 05:42:55;;;;;;;2.85;0.80;;;3.30;99.90;;;;;;5048514;28;20630;-92
2021/11/22 05:45:31;;;;;;;2.47;1.20;;;3.30;99.90;;;;;;5037779;28;20037;-93
2021/11/22 05:48:03;;;;;;;1.83;0.90;;;3.40;99.90;;;;;;5039908;28;20487;-92
2021/11/22 05:50:29;;;;;;;1.30;0.85;;;3.30;99.90;;;;;;5044820;28;20029;-92
2021/11/22 05:53:01;;;;;;;2.38;1.08;;;3.30;99.90;;;;;;5048311;28;20090;-92
2021/11/22 05:55:50;;;;;;;1.38;0.70;;;3.30;99.90;;;;;;5037283;28;20100;-92
2021/11/22 05:58:22;;;;;;;4.00;1.42;;;3.30;99.90;;;;;;5039418;28;20041;-90
2021/11/22 06:00:53;;;;;;;3.60;1.10;;;3.30;99.90;;;;;;5048528;28;20096;-91
2021/11/22 06:03:23;;;;;;;3.13;1.10;;;3.20;99.90;;;;;;5004626;28;20022;-91
2021/11/22 06:05:48;;;;;;;2.40;0.93;;;3.20;99.90;;;;;;5032880;28;20061;-91
2021/11/22 06:08:19;;;;;;;1.85;0.70;;;3.20;99.90;;;;;;5058785;28;20065;-91
2021/11/22 06:10:54;;;;;;;2.50;0.93;;;3.20;99.90;;;;;;5033936;28;20140;-91
2021/11/22 06:13:24;;;;;;;2.35;1.10;;;3.20;99.90;;;;;;5037435;28;20052;-90
2021/11/22 06:15:52;;;;;;;2.72;1.10;;;3.10;99.90;;;;;;5049786;28;20048;-92
2021/11/22 06:18:26;;;;;;;1.60;0.90;;;3.10;99.90;;;;;;5036829;28;20032;-92
2021/11/22 06:20:56;;;;;;;3.13;1.05;;;3.10;99.90;;;;;;5048815;28;20107;-92
2021/11/22 06:23:31;;;;;;;1.60;0.85;;;3.10;99.90;;;;;;5037928;28;20404;-92
2021/11/22 06:25:58;;;;;;;4.38;1.08;;;3.10;99.90;;;;;;5048446;28;20452;-91
2021/11/22 06:28:29;;;;;;;1.67;0.82;;;3.10;99.90;;;;;;5058451;28;20052;-92
2021/11/22 06:31:06;;;;;;;2.30;0.98;;;3.10;99.90;;;;;;5040827;28;20030;-91
2021/11/22 06:33:32;;;;;;;4.97;1.00;;;3.10;99.90;;;;;;5054090;28;20026;-89
2021/11/22 06:36:00;;;;;;;2.13;1.02;;;3.10;99.90;;;;;;5041999;28;20121;-90
2021/11/22 06:38:26;;;;;;;2.90;0.90;;;3.00;99.90;;;;;;5046128;28;20033;-92
2021/11/22 06:40:54;;;;;;;4.00;1.10;;;3.10;99.90;;;;;;5043942;28;20300;-92
2021/11/22 06:43:21;;;;;;;9.55;2.40;;;3.10;99.90;;;;;;5034638;28;20109;-92
2021/11/22 06:45:48;;;;;;;3.25;1.20;;;3.10;99.90;;;;;;5037136;28;20043;-91
2021/11/22 06:48:14;;;;;;;3.92;1.00;;;3.00;99.90;;;;;;5045619;28;20036;-92
2021/11/22 06:50:41;;;;;;;3.13;1.17;;;3.00;99.90;;;;;;5060331;28;20183;-93
2021/11/22 06:53:10;;;;;;;3.03;1.00;;;3.00;99.90;;;;;;5038151;28;20409;-92
2021/11/22 06:55:35;;;;;;;3.95;1.13;;;3.00;99.90;;;;;;5034701;28;20025;-93
2021/11/22 06:58:02;;;;;;;3.72;1.92;;;3.00;99.90;;;;;;5035221;28;20028;-92
2021/11/22 07:00:28;;;;;;;2.13;0.95;;;2.90;99.90;;;;;;5043787;28;20033;-91
2021/11/22 07:02:58;;;;;;;3.72;1.00;;;2.90;99.90;;;;;;5039349;28;20013;-91
2021/11/22 07:05:25;;;;;;;2.25;1.10;;;2.90;99.90;;;;;;5033979;28;20037;-91
2021/11/22 07:07:52;;;;;;;2.20;1.00;;;2.90;99.90;;;;;;5051995;28;20028;-92
2021/11/22 07:10:21;;;;;;;1.75;0.85;;;2.80;99.90;;;;;;5025843;28;20025;-92
2021/11/22 07:12:48;;;;;;;2.30;0.88;;;2.80;99.90;;;;;;5041655;28;20057;-92
2021/11/22 07:15:19;;;;;;;1.80;1.13;;;2.80;99.90;;;;;;5049805;28;20369;-91
2021/11/22 07:17:44;;;;;;;2.08;1.10;;;2.80;99.90;;;;;;5050847;28;20075;-92
2021/11/22 07:20:11;;;;;;;4.13;0.90;;;2.80;99.90;;;;;;5042207;28;20041;-92
2021/11/22 07:22:39;;;;;;;2.03;1.83;;;2.70;99.90;;;;;;5043820;28;20025;-92
2021/11/22 07:25:12;;;;;;;2.13;0.95;;;2.70;99.90;;;;;;5033095;28;20076;-92
2021/11/22 07:27:39;;;;;;;2.25;0.90;;;2.70;99.90;;;;;;5001260;28;20037;-92
2021/11/22 07:30:07;;;;;;;1.88;0.82;;;2.70;99.90;;;;;;5039879;28;20408;-93
2021/11/22 07:32:33;;;;;;;2.60;0.95;;;2.70;99.90;;;;;;5042167;28;20116;-92
2021/11/22 07:34:58;;;;;;;3.40;1.05;;;2.70;99.90;;;;;;5053441;28;20044;-92
2021/11/22 07:37:27;;;;;;;3.47;1.30;;;2.70;99.90;;;;;;5037574;28;20478;-92
2021/11/22 07:39:54;;;;;;;3.88;1.10;;;2.70;99.90;;;;;;5049808;28;20439;-91
2021/11/22 07:42:20;;;;;;;2.47;1.10;;;2.70;99.90;;;;;;5023442;28;20124;-92
2021/11/22 07:44:51;;;;;;;1.90;0.90;;;2.70;99.90;;;;;;5033726;28;20187;-91
2021/11/22 07:47:18;;;;;;;4.50;1.00;;;2.70;99.90;;;;;;5052233;28;20038;-90
2021/11/22 07:49:44;;;;;;;4.13;1.13;;;2.70;99.90;;;;;;5052414;28;20124;-91
2021/11/22 07:52:12;;;;;;;3.00;1.00;;;2.70;99.90;;;;;;5058590;28;20045;-92
2021/11/22 07:54:41;;;;;;;1.33;0.80;;;2.70;99.90;;;;;;5041980;28;20017;-94
2021/11/22 07:57:07;;;;;;;1.88;0.88;;;2.80;99.90;;;;;;5035234;28;20034;-93
2021/11/22 07:59:33;;;;;;;1.73;0.90;;;2.70;99.90;;;;;;5050762;28;20058;-93
2021/11/22 08:02:00;;;;;;;2.20;0.90;;;2.70;99.90;;;;;;5060331;28;20044;-92
2021/11/22 08:04:27;;;;;;;2.40;1.20;;;2.80;99.90;;;;;;5042988;28;20128;-93
2021/11/22 08:07:00;;;;;;;2.30;0.82;;;2.80;99.90;;;;;;5030751;28;20079;-93
2021/11/22 08:09:31;;;;;;;2.35;1.00;;;2.80;99.90;;;;;;5038488;28;20017;-93
2021/11/22 08:14:36;;;;;;;2.20;0.93;;;2.90;99.90;;;;;;5033097;28;20041;-94
2021/11/22 08:17:07;;;;;;;3.45;1.00;;;2.90;99.90;;;;;;5034321;28;20029;-92
2021/11/22 08:19:34;;;;;;;1.95;0.82;;;3.00;99.90;;;;;;5050307;28;20060;-92
2021/11/22 08:22:02;;;;;;;1.98;0.90;;;3.00;99.90;;;;;;5040410;28;20024;-92
2021/11/22 08:24:29;;;;;;;2.45;0.80;;;3.00;99.90;;;;;;5035356;28;20050;-92
2021/11/22 08:26:56;;;;;;;2.35;0.95;;;3.10;99.90;;;;;;5034332;28;20091;-92
2021/11/22 08:29:22;;;;;;;3.22;1.17;;;3.10;99.90;;;;;;5066441;28;20074;-92
2021/11/22 08:31:48;;;;;;;4.03;0.90;;;3.10;99.90;;;;;;5033316;28;20026;-92
2021/11/22 08:34:15;;;;;;;2.53;1.08;;;3.20;99.90;;;;;;5032844;28;20024;-92
2021/11/22 08:36:42;;;;;;;4.10;1.15;;;3.30;99.90;;;;;;5044749;28;20086;-93
2021/11/22 08:39:13;;;;;;;5.20;1.05;;;3.30;99.90;;;;;;5055673;28;20025;-92
2021/11/22 08:41:39;;;;;;;2.08;1.17;;;3.50;99.90;;;;;;5051027;28;20025;-93
2021/11/22 08:44:05;;;;;;;1.83;1.15;;;3.60;99.90;;;;;;5035304;28;20042;-91
2021/11/22 08:46:35;;;;;;;3.40;1.60;;;3.80;99.90;;;;;;5046883;28;20075;-92
2021/11/22 08:49:04;;;;;;;2.58;1.42;;;4.70;99.90;;;;;;5054526;28;20476;-91
2021/11/22 08:51:30;;;;;;;2.75;1.33;;;6.20;99.90;;;;;;5021462;28;20025;-93
2021/11/22 08:53:56;;;;;;;5.28;1.50;;;7.70;99.90;;;;;;5046149;28;20028;-92
2021/11/22 08:56:22;;;;;;;3.67;1.13;;;9.10;99.90;;;;;;5028522;28;20036;-91
2021/11/22 08:58:48;;;;;;;2.63;0.70;;;10.30;99.90;;;;;;5016925;28;20121;-92
2021/11/22 09:01:17;;;;;;;4.88;1.02;;;11.30;99.90;;;;;;5038009;28;20032;-92
2021/11/22 09:03:45;;;;;;;3.30;0.98;;;12.00;99.90;;;;;;5022485;28;20041;-92
2021/11/22 09:06:11;;;;;;;2.92;1.08;;;12.60;99.90;;;;;;5021957;28;20030;-92
2021/11/22 09:08:39;;;;;;;3.53;0.70;;;13.20;99.90;;;;;;5032530;28;20429;-91
2021/11/22 09:11:04;;;;;;;2.63;1.02;;;13.70;99.90;;;;;;5043239;28;20026;-92
2021/11/22 09:13:33;;;;;;;2.33;0.90;;;14.20;99.90;;;;;;5046352;28;20030;-94
2021/11/22 09:16:03;;;;;;;2.28;0.70;;;14.60;99.90;;;;;;5003105;28;20025;-92
2021/11/22 09:18:33;;;;;;;2.28;0.52;;;14.90;99.90;;;;;;5018720;28;20093;-91
2021/11/22 09:20:59;;;;;;;1.38;0.50;;;15.20;99.90;;;;;;5016199;28;20042;-92
2021/11/22 09:23:25;;;;;;;2.33;0.55;;;15.50;99.90;;;;;;5017739;28;20101;-92
2021/11/22 09:25:52;;;;;;;2.22;0.63;;;15.60;99.90;;;;;;5033171;28;20058;-92
2021/11/22 09:28:21;;;;;;;2.90;0.70;;;15.80;99.90;;;;;;5032447;28;20116;-92
2021/11/22 09:30:49;;;;;;;3.75;0.50;;;16.00;99.90;;;;;;5016703;28;20034;-92
2021/11/22 09:33:14;;;;;;;2.92;0.52;;;16.30;99.90;;;;;;5027716;28;20045;-92
2021/11/22 09:35:41;;;;;;;3.58;0.88;;;16.70;99.90;;;;;;5029788;28;20038;-92
2021/11/22 09:38:09;;;;;;;2.15;0.80;;;17.10;99.90;;;;;;5017825;28;20147;-91
2021/11/22 09:40:37;;;;;;;2.72;0.60;;;17.40;99.90;;;;;;5033578;28;20018;-92
2021/11/22 09:43:07;;;;;;;3.75;0.60;;;17.60;99.90;;;;;;5003177;28;20524;-93
2021/11/22 09:46:24;;;;;;;;;;;;;;;;;;;;;
2021/11/22 09:49:33;;;;;;;2.22;0.60;;;17.50;99.90;;;;;;5035244;28;20044;-92
2021/11/22 09:52:07;;;;;;;3.50;0.90;;;17.70;99.90;;;;;;5034126;28;20139;-94
2021/11/22 09:54:39;;;;;;;4.20;0.60;;;18.00;99.90;;;;;;5033513;28;20490;-94
2021/11/22 09:57:07;;;;;;;1.90;0.60;;;18.20;99.90;;;;;;5002213;28;20477;-92
2021/11/22 09:59:36;;;;;;;1.48;0.55;;;18.30;99.90;;;;;;5016799;28;20038;-93
2021/11/22 10:02:04;;;;;;;1.67;0.60;;;18.40;99.90;;;;;;5032445;28;20022;-93
2021/11/22 10:04:32;;;;;;;2.83;0.77;;;18.60;99.90;;;;;;5017474;28;20037;-94
2021/11/22 10:07:05;;;;;;;2.78;0.65;;;18.80;99.90;;;;;;5016877;28;20048;-93
2021/11/22 10:09:34;;;;;;;1.52;0.80;;;18.90;99.90;;;;;;5033788;28;20089;-90
2021/11/22 10:12:16;;;;;;;1.45;0.60;;;19.00;99.90;;;;;;5018840;28;20029;-91
2021/11/22 10:14:50;;;;;;;4.30;0.80;;;19.00;99.90;;;;;;5019671;28;20074;-91
2021/11/22 10:17:22;;;;;;;2.35;0.80;;;18.90;99.90;;;;;;5035365;28;20070;-91
2021/11/22 10:20:11;;;;;;;2.35;0.68;;;19.00;99.90;;;;;;5016452;28;20033;-90
2021/11/22 10:23:06;;;;;;;1.92;0.60;;;18.90;99.90;;;;;;5017651;28;20033;-91
2021/11/22 10:25:35;;;;;;;2.28;0.63;;;19.10;99.90;;;;;;5035330;28;20018;-90
2021/11/22 10:28:29;;;;;;;4.57;1.02;;;19.30;99.90;;;;;;5016912;28;20038;-91
2021/11/22 10:31:00;;;;;;;1.88;0.73;;;19.50;99.90;;;;;;5020643;28;20029;-91
2021/11/22 10:33:30;;;;;;;2.60;0.70;;;19.60;99.90;;;;;;5034838;28;20116;-92
2021/11/22 10:36:04;;;;;;;2.05;0.93;;;19.80;99.90;;;;;;5052031;28;20021;-92
2021/11/22 10:38:39;;;;;;;1.17;0.60;;;19.80;99.90;;;;;;5034404;28;20364;-91
2021/11/22 10:41:18;;;;;;;2.05;0.60;;;19.90;99.90;;;;;;5056639;28;20529;-91
2021/11/22 10:43:58;;;;;;;2.28;0.50;;;19.90;99.90;;;;;;5035162;28;20045;-92
2021/11/22 10:46:25;;;;;;;2.33;0.80;;;20.20;99.90;;;;;;5034832;28;20042;-92
2021/11/22 10:49:09;;;;;;;2.13;0.52;;;20.20;99.90;;;;;;5037278;28;20032;-92
2021/11/22 10:51:42;;;;;;;3.08;0.80;;;20.10;99.90;;;;;;5022278;28;20045;-92
2021/11/22 10:54:21;;;;;;;2.33;0.65;;;20.20;99.90;;;;;;5037331;28;20060;-90
2021/11/22 10:56:55;;;;;;;2.92;0.80;;;20.30;99.90;;;;;;5036715;28;20029;-90
2021/11/22 10:59:23;;;;;;;2.35;0.60;;;20.40;99.90;;;;;;5021455;28;20038;-91
2021/11/22 11:01:58;;;;;;;2.33;0.60;;;20.30;99.90;;;;;;5021559;28;20464;-91
2021/11/22 11:04:42;;;;;;;2.55;0.60;;;20.50;99.90;;;;;;5035287;28;20036;-92
2021/11/22 11:07:10;;;;;;;1.05;0.50;;;20.60;99.90;;;;;;5020184;28;20029;-91
2021/11/22 11:09:51;;;;;;;2.25;0.50;;;20.50;99.90;;;;;;5035526;28;20029;-92
2021/11/22 11:12:44;;;;;;;1.70;0.50;;;20.60;99.90;;;;;;5036361;28;20049;-92
2021/11/22 11:15:10;;;;;;;1.90;0.50;;;20.90;99.90;;;;;;5036286;28;20180;-91
2021/11/22 11:17:39;;;;;;;1.63;0.50;;;21.00;99.70;;;;;;5037656;28;20036;-93
2021/11/22 11:20:18;;;;;;;2.55;0.80;;;20.80;99.00;;;;;;5044854;28;20032;-92
2021/11/22 11:22:48;;;;;;;1.42;0.45;;;20.80;98.50;;;;;;5022136;28;20040;-91
2021/11/22 11:25:23;;;;;;;0.80;0.40;;;20.80;98.40;;;;;;5034533;28;20032;-90
2021/11/22 11:28:18;;;;;;;1.92;0.50;;;21.20;97.90;;;;;;5035073;28;20107;-93
2021/11/22 11:34:24;;;;;;;2.45;0.70;;;21.60;96.80;;;;;;5034713;28;20056;-90
2021/11/22 11:37:33;;;;;;;1.70;0.50;;;21.20;95.50;;;;;;5040369;28;20485;-92
2021/11/22 11:40:37;;;;;;;3.47;0.50;;;20.90;95.20;;;;;;5034812;28;20082;-93
2021/11/22 11:43:12;;;;;;;1.33;0.38;;;20.70;95.30;;;;;;5032895;28;20057;-94
2021/11/22 11:46:18;;;;;;;2.30;0.50;;;20.50;95.00;;;;;;5034690;28;20044;-92
2021/11/22 11:49:16;;;;;;;1.52;0.47;;;20.60;95.20;;;;;;5033582;28;20064;-92
2021/11/22 11:52:25;;;;;;;1.88;0.50;;;20.00;95.20;;;;;;5033374;28;20036;-92
2021/11/22 11:55:28;;;;;;;1.38;0.50;;;18.10;95.70;;;;;;5033501;28;20061;-92
2021/11/22 11:58:30;;;;;;;1.58;0.40;;;15.80;97.40;;;;;;5055551;28;20031;-92
2021/11/22 12:01:32;;;;;;;0.40;0.30;;;14.40;99.00;;;;;;5039084;28;20053;-94
2021/11/22 12:04:13;;;;;;;2.28;0.50;;;13.20;99.90;;;;;;5033533;28;20041;-91
2021/11/22 12:07:04;;;;;;;2.50;0.50;;;12.50;99.90;;;;;;5049183;28;20037;-91
2021/11/22 12:09:44;;;;;;;1.10;0.40;;;12.00;99.90;;;;;;5035178;28;20474;-92
2021/11/22 12:12:23;;;;;;;1.55;0.40;;;11.70;99.90;;;;;;5049178;28;20025;-92
2021/11/22 12:15:25;;;;;;;1.02;0.38;;;11.40;99.90;;;;;;5050814;28;20033;-91
2021/11/22 12:18:25;;;;;;;2.05;0.50;;;11.20;99.90;;;;;;5024165;28;20034;-91
2021/11/22 12:21:35;;;;;;;0.70;0.40;;;11.00;99.90;;;;;;5018924;28;20025;-91
2021/11/22 12:24:14;;;;;;;0.70;0.45;;;10.90;99.90;;;;;;5038047;28;20030;-90
2021/11/22 12:26:44;;;;;;;2.17;0.40;;;10.70;99.90;;;;;;5045596;28;20076;-91
2021/11/22 12:29:13;;;;;;;0.77;0.32;;;10.60;99.90;;;;;;5014962;28;20037;-91
2021/11/22 12:32:01;;;;;;;2.38;0.88;;;10.60;99.90;;;;;;5017945;28;20179;-91
2021/11/22 12:34:54;;;;;;;2.05;0.50;;;10.60;99.90;;;;;;5034694;28;20029;-92
2021/11/22 12:37:34;;;;;;;3.22;0.40;;;10.50;99.90;;;;;;5032726;28;20056;-91
2021/11/22 12:40:18;;;;;;;1.60;0.40;;;10.40;99.90;;;;;;5032690;28;20045;-91
2021/11/22 12:42:56;;;;;;;0.82;0.32;;;10.30;99.90;;;;;;5018035;28;20029;-91
2021/11/22 12:45:25;;;;;;;2.10;0.40;;;10.20;99.90;;;;;;5044581;28;20061;-91
2021/11/22 12:47:53;;;;;;;1.25;0.50;;;10.10;99.90;;;;;;5033655;28;20355;-91
2021/11/22 12:50:25;;;;;;;1.27;0.40;;;10.10;99.90;;;;;;5033137;28;20474;-90
2021/11/22 12:53:14;;;;;;;1.08;0.30;;;10.10;99.90;;;;;;5004656;28;20033;-91
2021/11/22 12:55:43;;;;;;;2.05;0.60;;;10.10;99.90;;;;;;5042377;28;20030;-90
2021/11/22 12:58:19;;;;;;;0.50;0.30;;;10.20;99.90;;;;;;5047956;28;20464;-90
2021/11/22 13:00:51;;;;;;;1.42;0.40;;;11.10;99.90;;;;;;5019782;28;20132;-91
2021/11/22 13:03:30;;;;;;;2.15;0.30;;;12.50;99.90;;;;;;5035870;28;20041;-91
2021/11/22 13:06:08;;;;;;;0.60;0.30;;;14.00;99.90;;;;;;5034401;28;20050;-91
2021/11/22 13:08:55;;;;;;;2.13;0.40;;;15.10;99.90;;;;;;5041634;28;20040;-91
2021/11/22 13:11:30;;;;;;;0.73;0.40;;;15.80;99.90;;;;;;5032050;28;20049;-92
2021/11/22 13:14:10;;;;;;;1.77;0.30;;;16.30;99.90;;;;;;5032714;28;20033;-90
2021/11/22 13:16:43;;;;;;;1.02;0.30;;;16.60;99.90;;;;;;5030663;28;20027;-91
2021/11/22 13:19:12;;;;;;;1.40;0.40;;;16.60;99.60;;;;;;5051800;28;20474;-92
2021/11/22 13:21:42;;;;;;;1.27;0.22;;;16.20;99.80;;;;;;5070368;28;20052;-91
2021/11/22 13:24:15;;;;;;;1.48;0.40;;;15.80;99.90;;;;;;5049622;28;20047;-91